PWSweather.com
Personal Weather Stations
Station Observations
KGRPEEBLES
PeeblesGB EH45 9LX

PeeblesGB EH45 9LX

Lat: 55.64096, Lon: -3.170893

Elevation: 517

Station Type: Watson W-8681

Latest ConditionsUpdated 11:15:02 AM GMT Friday, Jul 19, 2019
Currently Today's Max Today's Min Today's Average
Temperature 71.1°F21.7°C 71.1°F21.7°C 52.3°F11.3°C 58.9°F14.9°C
Dew Point 56.5°F13.6°C 57.2°F14.0°C 27.5°F-2.5°C 42.7°F5.9°C
Winds 5.2 mph SSE8.4 kmh SSE 7.4 mph -11.9 kmh - - 1.6 mph 2.6 kmh
Wind Gusts 9.8 mph15.8 kmh 11.4 mph18.3 kmh - -
Humidity 60% 81% 32% 56%
Pressure 29.56 in1001.0 mb 29.63 in1003.4 mb 29.56 in1001.0 mb -
Hour Temp Dew Point Humidity Winds Wind Gusts Pressure Precip Precip Rate Daily Precip Total
11:15 AM 71.1°F21.7°C 56.5°F13.6°C 60% 5.2 mph SSE8.4 kmh SSE 9.8 mph15.8 kmh 29.56 in1001.0 mb 0.00 in0.0 mm 0.00 in0.0 mm 0.00 in0.0 mm
11:00 AM 70.3°F21.3°C 57.2°F14.0°C 63% 4.5 mph SE7.2 kmh SE 9.2 mph14.8 kmh 29.56 in1001.0 mb 0.00 in0.0 mm 0.00 in0.0 mm 0.00 in0.0 mm
10:45 AM 68.9°F20.5°C 55.4°F13.0°C 62% 7.4 mph SSE11.9 kmh SSE 11.4 mph18.3 kmh 29.57 in1001.4 mb 0.00 in0.0 mm 0.00 in0.0 mm 0.00 in0.0 mm
10:30 AM 69.1°F20.6°C 55.5°F13.1°C 62% 5.6 mph S9.0 kmh S 9.8 mph15.8 kmh 29.57 in1001.4 mb 0.00 in0.0 mm 0.00 in0.0 mm 0.00 in0.0 mm
10:15 AM 69.3°F20.7°C 56.2°F13.4°C 63% 2.6 mph W4.2 kmh W 4.5 mph7.2 kmh 29.57 in1001.4 mb 0.00 in0.0 mm 0.00 in0.0 mm 0.00 in0.0 mm
10:00 AM 68.7°F20.4°C 54.8°F12.7°C 61% 4.7 mph SSE7.6 kmh SSE 8.3 mph13.4 kmh 29.58 in1001.7 mb 0.00 in0.0 mm 0.00 in0.0 mm 0.00 in0.0 mm
09:45 AM 68.9°F20.5°C 54.0°F12.2°C 59% 3.7 mph S6.0 kmh S 7.6 mph12.2 kmh 29.58 in1001.7 mb 0.00 in0.0 mm 0.00 in0.0 mm 0.00 in0.0 mm
09:30 AM 68.5°F20.3°C 55.0°F12.8°C 62% 2.1 mph SSW3.4 kmh SSW 6.9 mph11.1 kmh 29.58 in1001.7 mb 0.00 in0.0 mm 0.00 in0.0 mm 0.00 in0.0 mm
09:15 AM 66.6°F19.2°C 54.5°F12.5°C 65% 3.2 mph SE5.1 kmh SE 6.0 mph9.7 kmh 29.59 in1002.0 mb 0.00 in0.0 mm 0.00 in0.0 mm 0.00 in0.0 mm
09:00 AM 65.3°F18.5°C 52.8°F11.6°C 64% 3.9 mph S6.3 kmh S 10.7 mph17.2 kmh 29.59 in1002.0 mb 0.00 in0.0 mm 0.00 in0.0 mm 0.00 in0.0 mm
08:45 AM 64.6°F18.1°C 53.0°F11.7°C 66% 1.6 mph SE2.6 kmh SE 3.1 mph5.0 kmh 29.59 in1002.0 mb 0.00 in0.0 mm 0.00 in0.0 mm 0.00 in0.0 mm
08:30 AM 64.2°F17.9°C 52.2°F11.2°C 65% 2.5 mph SSE4.0 kmh SSE 4.5 mph7.2 kmh 29.59 in1002.0 mb 0.00 in0.0 mm 0.00 in0.0 mm 0.00 in0.0 mm
08:15 AM 64.2°F17.9°C 52.2°F11.2°C 65% 1.7 mph E2.7 kmh E 3.1 mph5.0 kmh 29.59 in1002.0 mb 0.00 in0.0 mm 0.00 in0.0 mm 0.00 in0.0 mm
08:00 AM 63.3°F17.4°C 51.4°F10.8°C 65% 1.3 mph NE2.1 kmh NE 2.2 mph3.5 kmh 29.59 in1002.0 mb 0.00 in0.0 mm 0.00 in0.0 mm 0.00 in0.0 mm
07:45 AM 62.6°F17.0°C 49.8°F9.9°C 63% 1.0 mph S1.6 kmh S 2.2 mph3.5 kmh 29.59 in1002.0 mb 0.00 in0.0 mm 0.00 in0.0 mm 0.00 in0.0 mm
07:30 AM 62.1°F16.7°C 46.7°F8.2°C 57% 2.2 mph N3.5 kmh N 3.8 mph6.1 kmh 29.60 in1002.4 mb 0.00 in0.0 mm 0.00 in0.0 mm 0.00 in0.0 mm
07:15 AM 60.6°F15.9°C 40.8°F4.9°C 48% 2.5 mph NNW4.0 kmh NNW 4.5 mph7.2 kmh 29.60 in1002.4 mb 0.00 in0.0 mm 0.00 in0.0 mm 0.00 in0.0 mm
07:00 AM 59.7°F15.4°C 36.0°F2.2°C 41% 2.3 mph NNE3.7 kmh NNE 4.5 mph7.2 kmh 29.60 in1002.4 mb 0.00 in0.0 mm 0.00 in0.0 mm 0.00 in0.0 mm
06:45 AM 59.0°F15.0°C 30.7°F-0.7°C 34% 1.6 mph NE2.6 kmh NE 3.8 mph6.1 kmh 29.60 in1002.4 mb 0.00 in0.0 mm 0.00 in0.0 mm 0.00 in0.0 mm
06:30 AM 58.3°F14.6°C 28.6°F-1.9°C 32% 1.1 mph NE1.8 kmh NE 2.2 mph3.5 kmh 29.60 in1002.4 mb 0.00 in0.0 mm 0.00 in0.0 mm 0.00 in0.0 mm
06:15 AM 57.0°F13.9°C 27.5°F-2.5°C 32% 0.5 mph NNE0.8 kmh NNE 1.6 mph2.6 kmh 29.61 in1002.7 mb 0.00 in0.0 mm 0.00 in0.0 mm 0.00 in0.0 mm
06:00 AM 55.9°F13.3°C 28.0°F-2.2°C 34% 1.0 mph NE1.6 kmh NE 1.6 mph2.6 kmh 29.60 in1002.4 mb 0.00 in0.0 mm 0.00 in0.0 mm 0.00 in0.0 mm
05:45 AM 55.4°F13.0°C 28.9°F-1.7°C 36% 1.0 mph NE1.6 kmh NE 1.6 mph2.6 kmh 29.61 in1002.7 mb 0.00 in0.0 mm 0.00 in0.0 mm 0.00 in0.0 mm
05:30 AM 55.2°F12.9°C 29.4°F-1.4°C 37% Calm Calm -- 29.61 in1002.7 mb 0.00 in0.0 mm 0.00 in0.0 mm 0.00 in0.0 mm
05:15 AM 54.9°F12.7°C 31.0°F-0.6°C 40% 0.2 mph S0.3 kmh S 2.2 mph3.5 kmh 29.61 in1002.7 mb 0.00 in0.0 mm 0.00 in0.0 mm 0.00 in0.0 mm
05:00 AM 54.7°F12.6°C 31.5°F-0.3°C 41% 0.1 mph NE0.2 kmh NE 0.7 mph1.1 kmh 29.61 in1002.7 mb 0.00 in0.0 mm 0.00 in0.0 mm 0.00 in0.0 mm
04:45 AM 54.5°F12.5°C 33.0°F0.6°C 44% Calm Calm -- 29.61 in1002.7 mb 0.00 in0.0 mm 0.00 in0.0 mm 0.00 in0.0 mm
04:30 AM 54.3°F12.4°C 34.0°F1.1°C 46% 0.6 mph E1.0 kmh E 1.6 mph2.6 kmh 29.61 in1002.7 mb 0.00 in0.0 mm 0.00 in0.0 mm 0.00 in0.0 mm
04:15 AM 54.3°F12.4°C 34.5°F1.4°C 47% 0.4 mph E0.6 kmh E 1.6 mph2.6 kmh 29.61 in1002.7 mb 0.00 in0.0 mm 0.00 in0.0 mm 0.00 in0.0 mm
04:00 AM 54.5°F12.5°C 36.3°F2.4°C 50% 0.8 mph E1.3 kmh E 1.6 mph2.6 kmh 29.61 in1002.7 mb 0.00 in0.0 mm 0.00 in0.0 mm 0.00 in0.0 mm
03:45 AM 54.5°F12.5°C 37.2°F2.9°C 52% 1.3 mph NE2.1 kmh NE 3.1 mph5.0 kmh 29.61 in1002.7 mb 0.00 in0.0 mm 0.00 in0.0 mm 0.00 in0.0 mm
03:30 AM 54.5°F12.5°C 37.7°F3.2°C 53% 0.9 mph NNE1.4 kmh NNE 1.6 mph2.6 kmh 29.61 in1002.7 mb 0.00 in0.0 mm 0.00 in0.0 mm 0.00 in0.0 mm
03:15 AM 54.1°F12.3°C 37.9°F3.3°C 54% 1.1 mph NNE1.8 kmh NNE 2.2 mph3.5 kmh 29.61 in1002.7 mb 0.00 in0.0 mm 0.00 in0.0 mm 0.00 in0.0 mm
03:00 AM 54.0°F12.2°C 38.6°F3.7°C 56% 0.6 mph N1.0 kmh N 1.6 mph2.6 kmh 29.61 in1002.7 mb 0.00 in0.0 mm 0.00 in0.0 mm 0.00 in0.0 mm
02:45 AM 53.8°F12.1°C 38.5°F3.6°C 56% 0.1 mph NE0.2 kmh NE 1.6 mph2.6 kmh 29.62 in1003.0 mb 0.00 in0.0 mm 0.00 in0.0 mm 0.00 in0.0 mm
02:30 AM 54.0°F12.2°C 39.1°F3.9°C 57% 0.3 mph NE0.5 kmh NE 1.6 mph2.6 kmh 29.62 in1003.0 mb 0.00 in0.0 mm 0.00 in0.0 mm 0.00 in0.0 mm
02:15 AM 53.8°F12.1°C 39.8°F4.3°C 59% 0.4 mph E0.6 kmh E 2.2 mph3.5 kmh 29.62 in1003.0 mb 0.00 in0.0 mm 0.00 in0.0 mm 0.00 in0.0 mm
02:00 AM 53.6°F12.0°C 40.1°F4.5°C 60% Calm Calm -- 29.62 in1003.0 mb 0.00 in0.0 mm 0.00 in0.0 mm 0.00 in0.0 mm
01:45 AM 53.6°F12.0°C 40.9°F4.9°C 62% 0.7 mph NE1.1 kmh NE 2.2 mph3.5 kmh 29.62 in1003.0 mb 0.00 in0.0 mm 0.00 in0.0 mm 0.00 in0.0 mm
01:30 AM 53.1°F11.7°C 41.6°F5.3°C 65% 1.3 mph SE2.1 kmh SE 3.1 mph5.0 kmh 29.62 in1003.0 mb 0.00 in0.0 mm 0.00 in0.0 mm 0.00 in0.0 mm
01:15 AM 52.9°F11.6°C 42.2°F5.7°C 67% 1.4 mph NNE2.3 kmh NNE 3.1 mph5.0 kmh 29.62 in1003.0 mb 0.00 in0.0 mm 0.00 in0.0 mm 0.00 in0.0 mm
01:00 AM 52.5°F11.4°C 42.7°F5.9°C 69% 0.1 mph NE0.2 kmh NE 1.6 mph2.6 kmh 29.62 in1003.0 mb 0.00 in0.0 mm 0.00 in0.0 mm 0.00 in0.0 mm
12:45 AM 52.7°F11.5°C 43.6°F6.4°C 71% Calm Calm -- 29.62 in1003.0 mb 0.00 in0.0 mm 0.00 in0.0 mm 0.00 in0.0 mm
12:30 AM 52.5°F11.4°C 44.8°F7.1°C 75% 0.2 mph E0.3 kmh E 0.7 mph1.1 kmh 29.62 in1003.0 mb 0.00 in0.0 mm 0.00 in0.0 mm 0.00 in0.0 mm
12:15 AM 52.3°F11.3°C 45.7°F7.6°C 78% 0.1 mph E0.2 kmh E 0.7 mph1.1 kmh 29.62 in1003.0 mb 0.00 in0.0 mm 0.00 in0.0 mm 0.00 in0.0 mm
12:00 AM 52.5°F11.4°C 46.9°F8.3°C 81% Calm Calm -- 29.63 in1003.4 mb 0.00 in0.0 mm 0.00 in0.0 mm 0.00 in0.0 mm